This is the latest recevied weather packets stored in our database for station/object KM4CNW. If no packets are shown the sender has not sent any weather packets the latest 10 day(s).
| Time | Temp. | Humidity | Pressure | Rain* | Wind** | Luminosity | Snow |
|---|---|---|---|---|---|---|---|
| 1777577833 | 25.56° C | 34% | 1003.7 hPa | 0 mm | - | 809 W/m² | - |
| 1777577528 | 25.56° C | 36% | 1003.5 hPa | 0 mm | - | 758 W/m² | - |
| 1777577225 | 25° C | 38% | 1003.7 hPa | 0 mm | - | 817 W/m² | - |
| 1777576921 | 25° C | 38% | 1003.7 hPa | 0 mm | - | 828 W/m² | - |
| 1777576616 | 23.89° C | 39% | 1003.9 hPa | 0 mm | - | 836 W/m² | - |
| 1777576312 | 22.78° C | 44% | 1003.9 hPa | 0 mm | - | 847 W/m² | - |
| 1777576008 | 23.33° C | 42% | 1003.9 hPa | 0 mm | - | 118 W/m² | - |
| 1777575705 | 23.33° C | 44% | 1004 hPa | 0 mm | - | 210 W/m² | - |
| 1777575401 | 22.78° C | 46% | 1004.1 hPa | 0 mm | - | 216 W/m² | - |
| 1777575097 | 23.33° C | 41% | 1004 hPa | 0 mm | - | 184 W/m² | - |
| 1777574792 | 24.44° C | 41% | 1004 hPa | 0 mm | - | 207 W/m² | - |
| 1777574491 | 24.44° C | 43% | 1004 hPa | 0 mm | - | 959 W/m² | - |
| 1777574187 | 24.44° C | 42% | 1004.1 hPa | 0 mm | - | 968 W/m² | - |
| 1777573881 | 24.44° C | 42% | 1004 hPa | 0 mm | - | 941 W/m² | - |
| 1777573576 | 23.89° C | 43% | 1004 hPa | 0 mm | - | 928 W/m² | - |
| 1777573273 | 23.89° C | 44% | 1004 hPa | 0 mm | - | 963 W/m² | - |
| 1777572969 | 23.33° C | 45% | 1004 hPa | 0 mm | - | 900 W/m² | - |
| 1777572666 | 22.78° C | 46% | 1003.9 hPa | 0 mm | - | 963 W/m² | - |
| 1777572365 | 23.33° C | 44% | 1003.9 hPa | 0 mm | - | 868 W/m² | - |
| 1777572062 | 24.44° C | 45% | 1004.3 hPa | 0 mm | - | 443 W/m² | - |
| 1777571762 | 24.44° C | 43% | 1004.3 hPa | 0 mm | - | 985 W/m² | - |
| 1777571459 | 24.44° C | 42% | 1004.1 hPa | 0 mm | - | 976 W/m² | - |
| 1777571155 | 24.44° C | 43% | 1004.2 hPa | 0 mm | - | 974 W/m² | - |
| 1777570851 | 24.44° C | 41% | 1004 hPa | 0 mm | - | 986 W/m² | - |
| 1777570548 | 23.89° C | 44% | 1004.2 hPa | 0 mm | - | 981 W/m² | - |
* Rain latest hour (hover to see other rain measurements)
** Current wind speed in m/s (hover to see current wind gust speed)